sensor_id;sensor_type;location;lat;lon;timestamp;P1;durP1;ratioP1;P2;durP2;ratioP2
77018;SDS011;66044;53.142;17.962;2024-01-25T00:00:01;6.30;;;1.50;;
77018;SDS011;66044;53.142;17.962;2024-01-25T00:02:27;5.60;;;1.20;;
77018;SDS011;66044;53.142;17.962;2024-01-25T00:04:52;7.90;;;1.80;;
77018;SDS011;66044;53.142;17.962;2024-01-25T00:07:18;7.90;;;1.70;;
77018;SDS011;66044;53.142;17.962;2024-01-25T00:09:44;7.20;;;1.50;;
77018;SDS011;66044;53.142;17.962;2024-01-25T00:12:10;8.10;;;1.80;;
77018;SDS011;66044;53.142;17.962;2024-01-25T00:14:35;10.10;;;1.70;;
77018;SDS011;66044;53.142;17.962;2024-01-25T00:17:02;12.60;;;2.30;;
77018;SDS011;66044;53.142;17.962;2024-01-25T00:19:28;9.20;;;1.80;;
77018;SDS011;66044;53.142;17.962;2024-01-25T00:21:53;9.00;;;2.00;;
77018;SDS011;66044;53.142;17.962;2024-01-25T00:24:19;9.20;;;1.70;;
77018;SDS011;66044;53.142;17.962;2024-01-25T00:26:45;8.20;;;1.70;;
77018;SDS011;66044;53.142;17.962;2024-01-25T00:29:11;9.30;;;1.90;;
77018;SDS011;66044;53.142;17.962;2024-01-25T00:31:36;9.60;;;1.90;;
77018;SDS011;66044;53.142;17.962;2024-01-25T00:34:02;10.90;;;2.20;;
77018;SDS011;66044;53.142;17.962;2024-01-25T00:36:28;8.70;;;1.90;;
77018;SDS011;66044;53.142;17.962;2024-01-25T00:38:54;8.40;;;1.60;;
77018;SDS011;66044;53.142;17.962;2024-01-25T00:41:20;9.60;;;1.80;;
77018;SDS011;66044;53.142;17.962;2024-01-25T00:43:46;10.40;;;2.00;;
77018;SDS011;66044;53.142;17.962;2024-01-25T00:46:12;11.00;;;1.90;;
77018;SDS011;66044;53.142;17.962;2024-01-25T00:48:39;11.40;;;2.40;;
77018;SDS011;66044;53.142;17.962;2024-01-25T00:51:07;10.40;;;1.90;;
77018;SDS011;66044;53.142;17.962;2024-01-25T00:53:34;8.00;;;1.80;;
77018;SDS011;66044;53.142;17.962;2024-01-25T00:56:00;14.50;;;1.70;;
77018;SDS011;66044;53.142;17.962;2024-01-25T00:58:26;9.80;;;1.80;;
77018;SDS011;66044;53.142;17.962;2024-01-25T01:00:52;6.70;;;1.30;;
77018;SDS011;66044;53.142;17.962;2024-01-25T01:03:18;9.90;;;1.80;;
77018;SDS011;66044;53.142;17.962;2024-01-25T01:05:45;10.00;;;1.90;;
77018;SDS011;66044;53.142;17.962;2024-01-25T01:08:11;11.60;;;1.80;;
77018;SDS011;66044;53.142;17.962;2024-01-25T01:10:38;8.40;;;1.50;;
77018;SDS011;66044;53.142;17.962;2024-01-25T01:13:03;7.80;;;1.50;;
77018;SDS011;66044;53.142;17.962;2024-01-25T01:15:29;9.00;;;1.80;;
77018;SDS011;66044;53.142;17.962;2024-01-25T01:17:55;7.80;;;1.30;;
77018;SDS011;66044;53.142;17.962;2024-01-25T01:20:21;6.70;;;1.50;;
77018;SDS011;66044;53.142;17.962;2024-01-25T01:22:47;10.90;;;1.70;;
77018;SDS011;66044;53.142;17.962;2024-01-25T01:25:13;8.50;;;1.80;;
77018;SDS011;66044;53.142;17.962;2024-01-25T01:27:38;6.90;;;1.40;;
77018;SDS011;66044;53.142;17.962;2024-01-25T01:30:05;10.40;;;1.60;;
77018;SDS011;66044;53.142;17.962;2024-01-25T01:32:33;9.60;;;1.90;;
77018;SDS011;66044;53.142;17.962;2024-01-25T01:34:59;9.90;;;1.70;;
77018;SDS011;66044;53.142;17.962;2024-01-25T01:37:25;11.40;;;1.50;;
77018;SDS011;66044;53.142;17.962;2024-01-25T01:39:51;8.10;;;1.80;;
77018;SDS011;66044;53.142;17.962;2024-01-25T01:42:22;10.80;;;1.90;;
77018;SDS011;66044;53.142;17.962;2024-01-25T01:44:52;9.00;;;1.70;;
77018;SDS011;66044;53.142;17.962;2024-01-25T01:47:18;8.70;;;1.70;;
77018;SDS011;66044;53.142;17.962;2024-01-25T01:49:50;9.00;;;1.90;;
77018;SDS011;66044;53.142;17.962;2024-01-25T01:52:16;12.40;;;2.40;;
77018;SDS011;66044;53.142;17.962;2024-01-25T01:54:47;7.40;;;1.80;;
77018;SDS011;66044;53.142;17.962;2024-01-25T01:57:16;7.50;;;1.60;;
77018;SDS011;66044;53.142;17.962;2024-01-25T01:59:44;9.10;;;1.90;;
77018;SDS011;66044;53.142;17.962;2024-01-25T02:02:11;11.00;;;1.80;;
77018;SDS011;66044;53.142;17.962;2024-01-25T02:04:37;10.70;;;1.90;;
77018;SDS011;66044;53.142;17.962;2024-01-25T02:07:03;10.90;;;2.00;;
77018;SDS011;66044;53.142;17.962;2024-01-25T02:09:33;9.80;;;1.80;;
77018;SDS011;66044;53.142;17.962;2024-01-25T02:12:02;9.30;;;1.70;;
77018;SDS011;66044;53.142;17.962;2024-01-25T02:14:28;6.80;;;1.60;;
77018;SDS011;66044;53.142;17.962;2024-01-25T02:16:54;8.80;;;1.50;;
77018;SDS011;66044;53.142;17.962;2024-01-25T02:19:20;7.70;;;1.30;;
77018;SDS011;66044;53.142;17.962;2024-01-25T02:21:46;8.70;;;1.30;;
77018;SDS011;66044;53.142;17.962;2024-01-25T02:24:13;8.20;;;1.70;;
77018;SDS011;66044;53.142;17.962;2024-01-25T02:26:41;9.90;;;1.70;;
77018;SDS011;66044;53.142;17.962;2024-01-25T02:29:07;9.00;;;1.60;;
77018;SDS011;66044;53.142;17.962;2024-01-25T02:31:33;11.60;;;1.90;;
77018;SDS011;66044;53.142;17.962;2024-01-25T02:33:59;7.80;;;2.30;;
77018;SDS011;66044;53.142;17.962;2024-01-25T02:36:25;10.90;;;1.90;;
77018;SDS011;66044;53.142;17.962;2024-01-25T02:38:51;8.20;;;1.40;;
77018;SDS011;66044;53.142;17.962;2024-01-25T02:41:17;8.30;;;1.80;;
77018;SDS011;66044;53.142;17.962;2024-01-25T02:43:42;10.60;;;1.70;;
77018;SDS011;66044;53.142;17.962;2024-01-25T02:46:09;7.50;;;1.50;;
77018;SDS011;66044;53.142;17.962;2024-01-25T02:48:36;8.90;;;1.70;;
77018;SDS011;66044;53.142;17.962;2024-01-25T02:51:01;8.60;;;1.80;;
77018;SDS011;66044;53.142;17.962;2024-01-25T02:53:27;8.70;;;1.50;;
77018;SDS011;66044;53.142;17.962;2024-01-25T02:55:53;9.20;;;1.60;;
77018;SDS011;66044;53.142;17.962;2024-01-25T02:58:19;6.20;;;1.10;;
77018;SDS011;66044;53.142;17.962;2024-01-25T03:00:44;10.50;;;1.60;;
77018;SDS011;66044;53.142;17.962;2024-01-25T03:03:11;13.70;;;2.10;;
77018;SDS011;66044;53.142;17.962;2024-01-25T03:05:37;8.30;;;1.50;;
77018;SDS011;66044;53.142;17.962;2024-01-25T03:08:02;10.20;;;1.50;;
77018;SDS011;66044;53.142;17.962;2024-01-25T03:10:30;11.40;;;1.80;;
77018;SDS011;66044;53.142;17.962;2024-01-25T03:12:56;7.70;;;1.50;;
77018;SDS011;66044;53.142;17.962;2024-01-25T03:15:22;10.50;;;1.90;;
77018;SDS011;66044;53.142;17.962;2024-01-25T03:17:48;9.80;;;1.80;;
77018;SDS011;66044;53.142;17.962;2024-01-25T03:20:14;11.30;;;2.30;;
77018;SDS011;66044;53.142;17.962;2024-01-25T03:22:40;10.00;;;1.80;;
77018;SDS011;66044;53.142;17.962;2024-01-25T03:25:06;6.30;;;1.30;;
77018;SDS011;66044;53.142;17.962;2024-01-25T03:27:34;9.50;;;1.60;;
77018;SDS011;66044;53.142;17.962;2024-01-25T03:30:00;9.40;;;1.70;;
77018;SDS011;66044;53.142;17.962;2024-01-25T03:32:27;7.80;;;1.20;;
77018;SDS011;66044;53.142;17.962;2024-01-25T03:34:53;8.50;;;1.60;;
77018;SDS011;66044;53.142;17.962;2024-01-25T03:37:19;7.70;;;1.40;;
77018;SDS011;66044;53.142;17.962;2024-01-25T03:39:45;4.80;;;1.00;;
77018;SDS011;66044;53.142;17.962;2024-01-25T03:42:11;8.80;;;2.20;;
77018;SDS011;66044;53.142;17.962;2024-01-25T03:44:37;8.90;;;1.70;;
77018;SDS011;66044;53.142;17.962;2024-01-25T03:47:02;6.90;;;1.50;;
77018;SDS011;66044;53.142;17.962;2024-01-25T03:49:28;7.50;;;1.10;;
77018;SDS011;66044;53.142;17.962;2024-01-25T03:51:57;8.50;;;1.60;;
77018;SDS011;66044;53.142;17.962;2024-01-25T03:54:25;7.70;;;1.80;;
77018;SDS011;66044;53.142;17.962;2024-01-25T03:56:52;6.30;;;1.20;;
77018;SDS011;66044;53.142;17.962;2024-01-25T03:59:17;7.00;;;1.30;;
77018;SDS011;66044;53.142;17.962;2024-01-25T04:01:44;7.90;;;1.40;;
77018;SDS011;66044;53.142;17.962;2024-01-25T04:04:10;8.70;;;1.40;;
77018;SDS011;66044;53.142;17.962;2024-01-25T04:06:42;6.30;;;1.20;;
77018;SDS011;66044;53.142;17.962;2024-01-25T04:09:09;6.50;;;1.20;;
77018;SDS011;66044;53.142;17.962;2024-01-25T04:11:36;7.50;;;1.40;;
77018;SDS011;66044;53.142;17.962;2024-01-25T04:14:02;5.80;;;1.30;;
77018;SDS011;66044;53.142;17.962;2024-01-25T04:16:30;6.10;;;1.40;;
77018;SDS011;66044;53.142;17.962;2024-01-25T04:19:00;7.20;;;1.10;;
77018;SDS011;66044;53.142;17.962;2024-01-25T04:21:26;8.90;;;1.50;;
77018;SDS011;66044;53.142;17.962;2024-01-25T04:23:53;7.40;;;1.30;;
77018;SDS011;66044;53.142;17.962;2024-01-25T04:26:19;5.10;;;1.20;;
77018;SDS011;66044;53.142;17.962;2024-01-25T04:28:44;6.40;;;1.20;;
77018;SDS011;66044;53.142;17.962;2024-01-25T04:31:10;6.10;;;1.10;;
77018;SDS011;66044;53.142;17.962;2024-01-25T04:33:37;5.80;;;1.30;;
77018;SDS011;66044;53.142;17.962;2024-01-25T04:36:04;6.50;;;1.30;;
77018;SDS011;66044;53.142;17.962;2024-01-25T04:38:30;6.20;;;1.30;;
77018;SDS011;66044;53.142;17.962;2024-01-25T04:40:55;6.00;;;1.20;;
77018;SDS011;66044;53.142;17.962;2024-01-25T04:43:21;6.60;;;1.30;;
77018;SDS011;66044;53.142;17.962;2024-01-25T04:45:47;7.70;;;1.10;;
77018;SDS011;66044;53.142;17.962;2024-01-25T04:48:13;7.00;;;1.30;;
77018;SDS011;66044;53.142;17.962;2024-01-25T04:50:39;7.50;;;1.30;;
77018;SDS011;66044;53.142;17.962;2024-01-25T04:53:04;8.60;;;1.80;;
77018;SDS011;66044;53.142;17.962;2024-01-25T04:55:30;6.50;;;1.20;;
77018;SDS011;66044;53.142;17.962;2024-01-25T04:57:56;6.00;;;1.30;;
77018;SDS011;66044;53.142;17.962;2024-01-25T05:00:22;4.10;;;1.00;;
77018;SDS011;66044;53.142;17.962;2024-01-25T05:02:48;6.40;;;1.10;;
77018;SDS011;66044;53.142;17.962;2024-01-25T05:05:14;6.70;;;1.30;;
77018;SDS011;66044;53.142;17.962;2024-01-25T05:07:41;5.80;;;1.20;;
77018;SDS011;66044;53.142;17.962;2024-01-25T05:10:07;7.10;;;1.50;;
77018;SDS011;66044;53.142;17.962;2024-01-25T05:12:34;6.70;;;1.50;;
77018;SDS011;66044;53.142;17.962;2024-01-25T05:15:00;7.60;;;1.20;;
77018;SDS011;66044;53.142;17.962;2024-01-25T05:17:26;5.90;;;0.90;;
77018;SDS011;66044;53.142;17.962;2024-01-25T05:19:51;6.00;;;1.00;;
77018;SDS011;66044;53.142;17.962;2024-01-25T05:22:18;5.90;;;1.10;;
77018;SDS011;66044;53.142;17.962;2024-01-25T05:24:44;8.40;;;1.30;;
77018;SDS011;66044;53.142;17.962;2024-01-25T05:27:12;5.10;;;1.20;;
77018;SDS011;66044;53.142;17.962;2024-01-25T05:29:38;4.00;;;0.80;;
77018;SDS011;66044;53.142;17.962;2024-01-25T05:32:03;6.00;;;1.10;;
77018;SDS011;66044;53.142;17.962;2024-01-25T05:34:29;5.70;;;1.10;;
77018;SDS011;66044;53.142;17.962;2024-01-25T05:36:55;4.90;;;0.80;;
77018;SDS011;66044;53.142;17.962;2024-01-25T05:39:21;5.50;;;1.10;;
77018;SDS011;66044;53.142;17.962;2024-01-25T05:41:47;4.70;;;1.00;;
77018;SDS011;66044;53.142;17.962;2024-01-25T05:44:13;7.60;;;1.20;;
77018;SDS011;66044;53.142;17.962;2024-01-25T05:46:39;4.80;;;1.00;;
77018;SDS011;66044;53.142;17.962;2024-01-25T05:49:04;5.00;;;1.10;;
77018;SDS011;66044;53.142;17.962;2024-01-25T05:51:30;5.20;;;1.30;;
77018;SDS011;66044;53.142;17.962;2024-01-25T05:53:56;4.70;;;0.90;;
77018;SDS011;66044;53.142;17.962;2024-01-25T05:56:22;4.80;;;0.90;;
77018;SDS011;66044;53.142;17.962;2024-01-25T05:58:47;4.80;;;1.40;;
77018;SDS011;66044;53.142;17.962;2024-01-25T06:01:14;3.80;;;1.00;;
77018;SDS011;66044;53.142;17.962;2024-01-25T06:03:40;4.80;;;1.00;;
77018;SDS011;66044;53.142;17.962;2024-01-25T06:06:05;3.60;;;0.90;;
77018;SDS011;66044;53.142;17.962;2024-01-25T06:08:33;3.50;;;0.80;;
77018;SDS011;66044;53.142;17.962;2024-01-25T06:11:00;3.40;;;0.80;;
77018;SDS011;66044;53.142;17.962;2024-01-25T06:13:26;4.70;;;1.40;;
77018;SDS011;66044;53.142;17.962;2024-01-25T06:15:52;4.20;;;1.20;;
77018;SDS011;66044;53.142;17.962;2024-01-25T06:18:17;5.10;;;1.10;;
77018;SDS011;66044;53.142;17.962;2024-01-25T06:20:43;5.10;;;1.40;;
77018;SDS011;66044;53.142;17.962;2024-01-25T06:23:09;8.30;;;3.40;;
77018;SDS011;66044;53.142;17.962;2024-01-25T06:25:36;8.60;;;3.60;;
77018;SDS011;66044;53.142;17.962;2024-01-25T06:28:03;11.90;;;6.00;;
77018;SDS011;66044;53.142;17.962;2024-01-25T06:30:29;13.00;;;6.00;;
77018;SDS011;66044;53.142;17.962;2024-01-25T06:32:55;8.80;;;3.50;;
77018;SDS011;66044;53.142;17.962;2024-01-25T06:35:21;6.80;;;1.90;;
77018;SDS011;66044;53.142;17.962;2024-01-25T06:37:47;4.50;;;1.40;;
77018;SDS011;66044;53.142;17.962;2024-01-25T06:40:13;5.30;;;1.50;;
77018;SDS011;66044;53.142;17.962;2024-01-25T06:42:39;6.60;;;1.70;;
77018;SDS011;66044;53.142;17.962;2024-01-25T06:45:05;6.10;;;1.40;;
77018;SDS011;66044;53.142;17.962;2024-01-25T06:47:30;5.90;;;1.40;;
77018;SDS011;66044;53.142;17.962;2024-01-25T06:49:56;4.90;;;1.20;;
77018;SDS011;66044;53.142;17.962;2024-01-25T06:52:22;5.20;;;1.30;;
77018;SDS011;66044;53.142;17.962;2024-01-25T06:54:48;4.40;;;1.30;;
77018;SDS011;66044;53.142;17.962;2024-01-25T06:57:13;8.10;;;2.30;;
77018;SDS011;66044;53.142;17.962;2024-01-25T06:59:41;7.80;;;1.80;;
77018;SDS011;66044;53.142;17.962;2024-01-25T07:02:06;6.00;;;1.50;;
77018;SDS011;66044;53.142;17.962;2024-01-25T07:04:32;6.40;;;1.30;;
77018;SDS011;66044;53.142;17.962;2024-01-25T07:06:58;7.10;;;1.40;;
77018;SDS011;66044;53.142;17.962;2024-01-25T07:09:25;6.70;;;1.80;;
77018;SDS011;66044;53.142;17.962;2024-01-25T07:11:51;6.90;;;1.80;;
77018;SDS011;66044;53.142;17.962;2024-01-25T07:14:17;5.60;;;1.50;;
77018;SDS011;66044;53.142;17.962;2024-01-25T07:16:43;6.10;;;1.90;;
77018;SDS011;66044;53.142;17.962;2024-01-25T07:19:09;6.00;;;2.00;;
77018;SDS011;66044;53.142;17.962;2024-01-25T07:21:36;6.70;;;2.20;;
77018;SDS011;66044;53.142;17.962;2024-01-25T07:24:02;6.80;;;2.10;;
77018;SDS011;66044;53.142;17.962;2024-01-25T07:26:29;7.90;;;1.90;;
77018;SDS011;66044;53.142;17.962;2024-01-25T07:28:56;8.10;;;1.50;;
77018;SDS011;66044;53.142;17.962;2024-01-25T07:31:26;5.40;;;1.30;;
77018;SDS011;66044;53.142;17.962;2024-01-25T07:33:53;5.50;;;1.40;;
77018;SDS011;66044;53.142;17.962;2024-01-25T07:36:21;4.40;;;1.30;;
77018;SDS011;66044;53.142;17.962;2024-01-25T07:38:46;4.30;;;1.10;;
77018;SDS011;66044;53.142;17.962;2024-01-25T07:41:14;7.70;;;1.90;;
77018;SDS011;66044;53.142;17.962;2024-01-25T07:43:43;5.70;;;1.50;;
77018;SDS011;66044;53.142;17.962;2024-01-25T07:46:09;7.50;;;1.80;;
77018;SDS011;66044;53.142;17.962;2024-01-25T07:48:36;6.20;;;1.90;;
77018;SDS011;66044;53.142;17.962;2024-01-25T07:51:03;5.10;;;1.50;;
77018;SDS011;66044;53.142;17.962;2024-01-25T07:53:28;6.00;;;1.80;;
77018;SDS011;66044;53.142;17.962;2024-01-25T07:55:54;8.80;;;2.10;;
77018;SDS011;66044;53.142;17.962;2024-01-25T07:58:20;7.20;;;1.80;;
77018;SDS011;66044;53.142;17.962;2024-01-25T08:00:46;8.20;;;3.00;;
77018;SDS011;66044;53.142;17.962;2024-01-25T08:03:11;16.00;;;6.70;;
77018;SDS011;66044;53.142;17.962;2024-01-25T08:05:37;13.10;;;4.50;;
77018;SDS011;66044;53.142;17.962;2024-01-25T08:08:03;13.70;;;4.60;;
77018;SDS011;66044;53.142;17.962;2024-01-25T08:10:29;10.80;;;4.90;;
77018;SDS011;66044;53.142;17.962;2024-01-25T08:12:55;7.40;;;2.60;;
77018;SDS011;66044;53.142;17.962;2024-01-25T08:15:20;6.90;;;2.50;;
77018;SDS011;66044;53.142;17.962;2024-01-25T08:17:46;5.70;;;1.80;;
77018;SDS011;66044;53.142;17.962;2024-01-25T08:20:12;7.10;;;1.70;;
77018;SDS011;66044;53.142;17.962;2024-01-25T08:22:40;5.20;;;1.40;;
77018;SDS011;66044;53.142;17.962;2024-01-25T08:25:07;5.80;;;1.80;;
77018;SDS011;66044;53.142;17.962;2024-01-25T08:27:35;6.00;;;1.30;;
77018;SDS011;66044;53.142;17.962;2024-01-25T08:30:01;5.10;;;1.20;;
77018;SDS011;66044;53.142;17.962;2024-01-25T08:32:26;5.30;;;1.30;;
77018;SDS011;66044;53.142;17.962;2024-01-25T08:34:52;5.50;;;1.50;;
77018;SDS011;66044;53.142;17.962;2024-01-25T08:37:18;6.20;;;1.80;;
77018;SDS011;66044;53.142;17.962;2024-01-25T08:39:44;5.50;;;1.30;;
77018;SDS011;66044;53.142;17.962;2024-01-25T08:42:11;6.00;;;1.20;;
77018;SDS011;66044;53.142;17.962;2024-01-25T08:44:38;5.10;;;1.10;;
77018;SDS011;66044;53.142;17.962;2024-01-25T08:47:04;6.20;;;1.40;;
77018;SDS011;66044;53.142;17.962;2024-01-25T08:49:30;8.50;;;1.90;;
77018;SDS011;66044;53.142;17.962;2024-01-25T08:51:56;6.40;;;1.30;;
77018;SDS011;66044;53.142;17.962;2024-01-25T08:54:22;5.70;;;1.20;;
77018;SDS011;66044;53.142;17.962;2024-01-25T08:56:48;6.60;;;1.20;;
77018;SDS011;66044;53.142;17.962;2024-01-25T08:59:13;5.60;;;1.50;;
77018;SDS011;66044;53.142;17.962;2024-01-25T09:01:39;9.70;;;1.60;;
77018;SDS011;66044;53.142;17.962;2024-01-25T09:04:05;8.20;;;2.10;;
77018;SDS011;66044;53.142;17.962;2024-01-25T09:06:31;6.30;;;1.40;;
77018;SDS011;66044;53.142;17.962;2024-01-25T09:08:57;5.90;;;1.30;;
77018;SDS011;66044;53.142;17.962;2024-01-25T09:11:22;5.80;;;1.20;;
77018;SDS011;66044;53.142;17.962;2024-01-25T09:13:48;7.60;;;1.70;;
77018;SDS011;66044;53.142;17.962;2024-01-25T09:16:15;7.50;;;1.50;;
77018;SDS011;66044;53.142;17.962;2024-01-25T09:18:41;7.10;;;1.40;;
77018;SDS011;66044;53.142;17.962;2024-01-25T09:21:07;9.40;;;1.90;;
77018;SDS011;66044;53.142;17.962;2024-01-25T09:23:33;7.50;;;1.90;;
77018;SDS011;66044;53.142;17.962;2024-01-25T09:26:00;8.20;;;2.00;;
77018;SDS011;66044;53.142;17.962;2024-01-25T09:28:26;8.50;;;2.20;;
77018;SDS011;66044;53.142;17.962;2024-01-25T09:30:51;8.80;;;1.90;;
77018;SDS011;66044;53.142;17.962;2024-01-25T09:33:17;8.10;;;2.00;;
77018;SDS011;66044;53.142;17.962;2024-01-25T09:35:43;8.50;;;2.10;;
77018;SDS011;66044;53.142;17.962;2024-01-25T09:38:12;11.10;;;2.50;;
77018;SDS011;66044;53.142;17.962;2024-01-25T09:40:39;11.50;;;2.60;;
77018;SDS011;66044;53.142;17.962;2024-01-25T09:43:06;8.80;;;2.40;;
77018;SDS011;66044;53.142;17.962;2024-01-25T09:45:32;7.90;;;2.20;;
77018;SDS011;66044;53.142;17.962;2024-01-25T09:47:57;10.70;;;2.60;;
77018;SDS011;66044;53.142;17.962;2024-01-25T09:50:24;9.90;;;2.50;;
77018;SDS011;66044;53.142;17.962;2024-01-25T09:52:54;8.80;;;2.20;;
77018;SDS011;66044;53.142;17.962;2024-01-25T09:55:24;9.30;;;2.70;;
77018;SDS011;66044;53.142;17.962;2024-01-25T09:57:54;10.10;;;2.60;;
77018;SDS011;66044;53.142;17.962;2024-01-25T10:00:24;11.90;;;2.90;;
77018;SDS011;66044;53.142;17.962;2024-01-25T10:02:52;7.20;;;1.70;;
77018;SDS011;66044;53.142;17.962;2024-01-25T10:05:19;8.60;;;1.90;;
77018;SDS011;66044;53.142;17.962;2024-01-25T10:07:45;7.90;;;1.90;;
77018;SDS011;66044;53.142;17.962;2024-01-25T10:10:12;8.50;;;2.10;;
77018;SDS011;66044;53.142;17.962;2024-01-25T10:12:39;11.90;;;1.80;;
77018;SDS011;66044;53.142;17.962;2024-01-25T10:15:06;9.60;;;2.10;;
77018;SDS011;66044;53.142;17.962;2024-01-25T10:17:35;7.60;;;2.00;;
77018;SDS011;66044;53.142;17.962;2024-01-25T10:20:01;9.20;;;2.30;;
77018;SDS011;66044;53.142;17.962;2024-01-25T10:22:27;10.50;;;1.90;;
77018;SDS011;66044;53.142;17.962;2024-01-25T10:24:53;9.70;;;2.10;;
77018;SDS011;66044;53.142;17.962;2024-01-25T10:27:20;7.30;;;2.10;;
77018;SDS011;66044;53.142;17.962;2024-01-25T10:29:47;9.10;;;1.90;;
77018;SDS011;66044;53.142;17.962;2024-01-25T10:32:13;8.50;;;2.20;;
77018;SDS011;66044;53.142;17.962;2024-01-25T10:34:39;9.30;;;3.10;;
77018;SDS011;66044;53.142;17.962;2024-01-25T10:37:05;8.00;;;1.90;;
77018;SDS011;66044;53.142;17.962;2024-01-25T10:39:33;8.70;;;2.40;;
77018;SDS011;66044;53.142;17.962;2024-01-25T10:42:00;8.70;;;3.10;;
77018;SDS011;66044;53.142;17.962;2024-01-25T10:44:26;12.50;;;4.40;;
77018;SDS011;66044;53.142;17.962;2024-01-25T10:46:52;9.90;;;3.00;;
77018;SDS011;66044;53.142;17.962;2024-01-25T10:49:20;10.00;;;3.30;;
77018;SDS011;66044;53.142;17.962;2024-01-25T10:51:47;13.60;;;3.50;;
77018;SDS011;66044;53.142;17.962;2024-01-25T10:54:14;6.90;;;2.10;;
77018;SDS011;66044;53.142;17.962;2024-01-25T10:56:41;6.80;;;1.80;;
77018;SDS011;66044;53.142;17.962;2024-01-25T10:59:07;6.50;;;1.70;;
77018;SDS011;66044;53.142;17.962;2024-01-25T11:01:34;8.70;;;3.60;;
77018;SDS011;66044;53.142;17.962;2024-01-25T11:04:00;10.90;;;3.10;;
77018;SDS011;66044;53.142;17.962;2024-01-25T11:06:27;9.40;;;3.00;;
77018;SDS011;66044;53.142;17.962;2024-01-25T11:09:03;14.00;;;3.80;;
77018;SDS011;66044;53.142;17.962;2024-01-25T11:11:36;10.60;;;3.40;;
77018;SDS011;66044;53.142;17.962;2024-01-25T11:14:04;10.60;;;3.00;;
77018;SDS011;66044;53.142;17.962;2024-01-25T11:16:38;10.40;;;3.30;;
77018;SDS011;66044;53.142;17.962;2024-01-25T11:19:07;10.80;;;3.50;;
77018;SDS011;66044;53.142;17.962;2024-01-25T11:21:41;10.90;;;3.20;;
77018;SDS011;66044;53.142;17.962;2024-01-25T11:26:42;11.20;;;3.60;;
77018;SDS011;66044;53.142;17.962;2024-01-25T11:29:10;10.80;;;2.80;;
77018;SDS011;66044;53.142;17.962;2024-01-25T11:31:45;11.40;;;3.80;;
77018;SDS011;66044;53.142;17.962;2024-01-25T11:34:14;10.90;;;3.10;;
77018;SDS011;66044;53.142;17.962;2024-01-25T11:36:43;9.10;;;2.90;;
77018;SDS011;66044;53.142;17.962;2024-01-25T11:39:10;8.40;;;3.10;;
77018;SDS011;66044;53.142;17.962;2024-01-25T11:41:37;10.70;;;4.10;;
77018;SDS011;66044;53.142;17.962;2024-01-25T11:44:04;14.20;;;3.40;;
77018;SDS011;66044;53.142;17.962;2024-01-25T11:46:30;13.00;;;5.20;;
77018;SDS011;66044;53.142;17.962;2024-01-25T11:48:59;14.40;;;4.70;;
77018;SDS011;66044;53.142;17.962;2024-01-25T11:51:25;12.60;;;3.40;;
77018;SDS011;66044;53.142;17.962;2024-01-25T11:53:51;9.20;;;2.90;;
77018;SDS011;66044;53.142;17.962;2024-01-25T11:56:21;9.90;;;2.60;;
77018;SDS011;66044;53.142;17.962;2024-01-25T11:58:53;11.60;;;3.20;;
77018;SDS011;66044;53.142;17.962;2024-01-25T12:01:22;12.60;;;3.70;;
77018;SDS011;66044;53.142;17.962;2024-01-25T12:03:50;12.40;;;4.30;;
77018;SDS011;66044;53.142;17.962;2024-01-25T12:06:16;12.40;;;3.70;;
77018;SDS011;66044;53.142;17.962;2024-01-25T12:08:44;9.30;;;3.30;;
77018;SDS011;66044;53.142;17.962;2024-01-25T12:11:11;9.90;;;2.70;;
77018;SDS011;66044;53.142;17.962;2024-01-25T12:13:41;10.50;;;2.90;;
77018;SDS011;66044;53.142;17.962;2024-01-25T12:16:08;8.00;;;2.50;;
77018;SDS011;66044;53.142;17.962;2024-01-25T12:18:35;10.50;;;2.50;;
77018;SDS011;66044;53.142;17.962;2024-01-25T12:21:03;11.90;;;2.20;;
77018;SDS011;66044;53.142;17.962;2024-01-25T12:23:34;9.20;;;2.20;;
77018;SDS011;66044;53.142;17.962;2024-01-25T12:26:03;10.00;;;2.50;;
77018;SDS011;66044;53.142;17.962;2024-01-25T12:28:30;9.60;;;2.80;;
77018;SDS011;66044;53.142;17.962;2024-01-25T12:31:01;9.30;;;3.30;;
77018;SDS011;66044;53.142;17.962;2024-01-25T12:33:29;9.30;;;2.80;;
77018;SDS011;66044;53.142;17.962;2024-01-25T12:35:55;7.60;;;2.80;;
77018;SDS011;66044;53.142;17.962;2024-01-25T12:38:22;11.00;;;3.60;;
77018;SDS011;66044;53.142;17.962;2024-01-25T12:40:49;12.90;;;3.70;;
77018;SDS011;66044;53.142;17.962;2024-01-25T12:43:16;10.10;;;3.10;;
77018;SDS011;66044;53.142;17.962;2024-01-25T12:45:42;8.20;;;2.90;;
77018;SDS011;66044;53.142;17.962;2024-01-25T12:48:09;10.10;;;3.30;;
77018;SDS011;66044;53.142;17.962;2024-01-25T12:50:35;10.30;;;3.20;;
77018;SDS011;66044;53.142;17.962;2024-01-25T12:53:02;9.30;;;2.50;;
77018;SDS011;66044;53.142;17.962;2024-01-25T12:55:28;7.40;;;1.90;;
77018;SDS011;66044;53.142;17.962;2024-01-25T12:57:56;9.30;;;2.40;;
77018;SDS011;66044;53.142;17.962;2024-01-25T13:00:22;6.60;;;2.00;;
77018;SDS011;66044;53.142;17.962;2024-01-25T13:02:48;6.30;;;2.00;;
77018;SDS011;66044;53.142;17.962;2024-01-25T13:05:15;8.80;;;2.60;;
77018;SDS011;66044;53.142;17.962;2024-01-25T13:07:41;6.60;;;2.00;;
77018;SDS011;66044;53.142;17.962;2024-01-25T13:10:08;8.80;;;2.10;;
77018;SDS011;66044;53.142;17.962;2024-01-25T13:12:34;8.50;;;2.90;;
77018;SDS011;66044;53.142;17.962;2024-01-25T13:15:00;10.10;;;3.20;;
77018;SDS011;66044;53.142;17.962;2024-01-25T13:17:26;7.70;;;2.50;;
77018;SDS011;66044;53.142;17.962;2024-01-25T13:19:53;8.10;;;2.60;;
77018;SDS011;66044;53.142;17.962;2024-01-25T13:22:19;9.10;;;2.70;;
77018;SDS011;66044;53.142;17.962;2024-01-25T13:24:47;7.10;;;2.30;;
77018;SDS011;66044;53.142;17.962;2024-01-25T13:27:12;8.60;;;2.20;;
77018;SDS011;66044;53.142;17.962;2024-01-25T13:29:38;7.20;;;3.00;;
77018;SDS011;66044;53.142;17.962;2024-01-25T13:32:04;9.50;;;2.70;;
77018;SDS011;66044;53.142;17.962;2024-01-25T13:34:30;8.30;;;2.50;;
77018;SDS011;66044;53.142;17.962;2024-01-25T13:36:56;6.80;;;2.00;;
77018;SDS011;66044;53.142;17.962;2024-01-25T13:39:22;9.10;;;2.90;;
77018;SDS011;66044;53.142;17.962;2024-01-25T13:41:47;7.50;;;2.70;;
77018;SDS011;66044;53.142;17.962;2024-01-25T13:44:14;6.50;;;2.00;;
77018;SDS011;66044;53.142;17.962;2024-01-25T13:46:40;7.40;;;2.40;;
77018;SDS011;66044;53.142;17.962;2024-01-25T13:49:06;6.70;;;1.90;;
77018;SDS011;66044;53.142;17.962;2024-01-25T13:51:32;5.60;;;2.00;;
77018;SDS011;66044;53.142;17.962;2024-01-25T13:53:57;6.60;;;2.20;;
77018;SDS011;66044;53.142;17.962;2024-01-25T13:56:24;5.50;;;1.60;;
77018;SDS011;66044;53.142;17.962;2024-01-25T13:58:50;6.90;;;1.80;;
77018;SDS011;66044;53.142;17.962;2024-01-25T14:01:17;7.50;;;2.20;;
77018;SDS011;66044;53.142;17.962;2024-01-25T14:03:43;8.10;;;2.20;;
77018;SDS011;66044;53.142;17.962;2024-01-25T14:06:08;9.30;;;2.40;;
77018;SDS011;66044;53.142;17.962;2024-01-25T14:08:37;6.70;;;2.00;;
77018;SDS011;66044;53.142;17.962;2024-01-25T14:11:04;6.60;;;1.90;;
77018;SDS011;66044;53.142;17.962;2024-01-25T14:13:32;5.50;;;1.50;;
77018;SDS011;66044;53.142;17.962;2024-01-25T14:15:58;4.20;;;1.10;;
77018;SDS011;66044;53.142;17.962;2024-01-25T14:18:27;4.30;;;1.20;;
77018;SDS011;66044;53.142;17.962;2024-01-25T14:20:55;4.40;;;1.30;;
77018;SDS011;66044;53.142;17.962;2024-01-25T14:23:20;5.40;;;1.40;;
77018;SDS011;66044;53.142;17.962;2024-01-25T14:25:46;4.70;;;1.50;;
77018;SDS011;66044;53.142;17.962;2024-01-25T14:28:12;5.20;;;1.60;;